Česky Dansk Deutsch English Español Suomi Français Magyar Italiano Nederlands norsk Polski Português svenska Türkçe

 

Weather

Vlieland (Netherlands)

12:59, 23 August 2016 (GMT)

NWNNE
WE
SWSSE
Home            
Vlieland De Kooy Leeuwarden Lelystad Amsterdam Airport Schiphol Groningen Airport Eelde Valkenburg Soesterberg De Bilt Deelen Rotterdam Airport Zestienhoven Meppen-Mil Twenthe Nordhorn Wittmundhaven Volkel Gilze-Rijen Kalkar Rheine-Bentlage Jever Niederrhein Laarbruch Eindhoven

To put a weather button on your web site or blog, copy the code below and paste it into your page . The first box contains HTML code, the second UBB code.


Add to Google

Details

Wind speed:2 bf, 5 kn, 2.6 m/s, 5.8 miles/h, 9.3 km/h
Wind direction:S, 190° - WNW, 290°
Visibility:Greater than 10000 m, 10 km, 32800 ft, 6.2 miles
Clouds:Scattered clouds at 1000 ft, 305 m
Broken clouds at 1200 ft, 366 m
Temperature:22°C, 72°F
Feels like:22°C, 71°F
Dew-point:19°C, 66°F
Atmospheric pressure:1025 hPa, 768.8 mmHg, 30.27 inHg, 1.012 atm
Relative humidity:83.1 %
METAR:EHVL 231259Z AUTO 25005KT 190V290 9999 SCT010 BKN012 22/19 Q1025 GRN

Shortcuts

An up-to-date overview of weather conditions all over the world. Add locations with the plus (+) sign. These shortcuts can be added to Google.

Lid van de Technetium groep

website free tracking
StatCounter NetStat W3C Validator

07-07-2022 04:38:25
astro.technetium.be money.technetium.be phote.technetium.be tafeltennistafel.technetium.be www.ligfiets.net